createdAt,value
2019-02-05T00:00:33.600Z,91.60
2019-02-05T00:03:01.570Z,91.20
2019-02-05T00:05:29.315Z,91.40
2019-02-05T00:07:57.441Z,90.80
2019-02-05T00:10:25.026Z,90.70
2019-02-05T00:12:53.250Z,91.00
2019-02-05T00:15:21.298Z,91.50
2019-02-05T00:17:49.770Z,91.60
2019-02-05T00:20:17.383Z,91.60
2019-02-05T00:22:45.640Z,91.00
2019-02-05T00:25:13.812Z,91.80
2019-02-05T00:27:41.779Z,92.10
2019-02-05T00:30:09.858Z,91.80
2019-02-05T00:32:37.518Z,91.80
2019-02-05T00:35:06.134Z,91.60
2019-02-05T00:37:34.123Z,92.30
2019-02-05T00:40:02.160Z,92.20
2019-02-05T00:42:29.798Z,91.70
2019-02-05T00:44:58.175Z,92.00
2019-02-05T00:47:25.802Z,92.30
2019-02-05T00:49:53.665Z,92.80
2019-02-05T00:52:21.357Z,92.90
2019-02-05T00:54:48.994Z,92.70
2019-02-05T00:57:16.644Z,92.90
2019-02-05T00:59:44.246Z,93.80
2019-02-05T01:02:12.266Z,94.00
2019-02-05T01:04:40.176Z,93.90
2019-02-05T01:07:08.152Z,94.00
2019-02-05T01:09:36.143Z,94.10
2019-02-05T01:12:03.874Z,93.70
2019-02-05T01:14:31.517Z,93.80
2019-02-05T01:16:59.442Z,93.60
2019-02-05T01:19:27.121Z,93.50
2019-02-05T01:21:54.755Z,93.40
2019-02-05T01:24:23.006Z,93.30
2019-02-05T01:26:51.411Z,94.00
2019-02-05T01:29:19.151Z,93.90
2019-02-05T01:31:46.816Z,94.10
2019-02-05T01:34:14.794Z,94.50
2019-02-05T01:36:42.753Z,94.50
2019-02-05T01:39:10.585Z,94.50
2019-02-05T01:41:38.598Z,94.00
2019-02-05T01:44:06.730Z,94.40
2019-02-05T01:46:35.103Z,94.30
2019-02-05T01:49:03.025Z,94.40
2019-02-05T01:51:30.946Z,95.20
2019-02-05T01:53:59.669Z,95.10
2019-02-05T01:56:28.544Z,95.30
2019-02-05T01:58:56.514Z,95.50
2019-02-05T02:01:24.230Z,95.90
2019-02-05T02:03:52.155Z,95.70
2019-02-05T02:06:19.908Z,95.70
2019-02-05T02:08:48.029Z,95.20
2019-02-05T02:11:15.727Z,95.30
2019-02-05T02:13:43.587Z,95.90
2019-02-05T02:16:11.466Z,96.40
2019-02-05T02:18:39.134Z,96.50
2019-02-05T02:21:07.083Z,96.60
2019-02-05T02:23:35.178Z,96.40
2019-02-05T02:26:02.852Z,96.40
2019-02-05T02:28:30.627Z,96.60
2019-02-05T02:30:58.982Z,97.30
2019-02-05T02:33:27.452Z,97.20
2019-02-05T02:35:55.346Z,96.90
2019-02-05T02:38:23.397Z,97.00
2019-02-05T02:40:51.065Z,96.90
2019-02-05T02:43:18.722Z,97.00
2019-02-05T02:45:46.663Z,96.70
2019-02-05T02:48:15.176Z,97.00
2019-02-05T02:50:42.871Z,96.90
2019-02-05T02:53:10.799Z,96.20
2019-02-05T02:55:38.395Z,96.80
2019-02-05T02:58:06.122Z,96.40
2019-02-05T03:00:33.874Z,97.10
2019-02-05T03:03:01.853Z,96.50
2019-02-05T03:05:29.679Z,97.10
2019-02-05T03:07:57.359Z,97.20
2019-02-05T03:10:26.854Z,96.80
2019-02-05T03:12:54.809Z,97.40
2019-02-05T03:15:23.336Z,97.40
2019-02-05T03:17:51.410Z,97.90
2019-02-05T03:20:19.048Z,97.90
2019-02-05T03:22:47.070Z,97.50
2019-02-05T03:25:18.093Z,97.70
2019-02-05T03:27:46.152Z,97.60
2019-02-05T03:30:16.129Z,98.40
2019-02-05T03:32:44.130Z,98.40
2019-02-05T03:35:12.170Z,97.90
2019-02-05T03:37:40.383Z,98.10
2019-02-05T03:40:16.230Z,97.90
2019-02-05T03:42:44.201Z,97.80
2019-02-05T03:45:12.219Z,98.30
2019-02-05T03:47:40.034Z,98.20
2019-02-05T03:50:07.810Z,98.30
2019-02-05T03:52:51.230Z,98.10
2019-02-05T03:56:00.950Z,98.30
2019-02-05T03:59:10.486Z,97.80
2019-02-05T04:02:21.482Z,98.30
2019-02-05T04:05:22.857Z,98.30
2019-02-05T04:08:41.508Z,97.80
2019-02-05T04:11:56.412Z,97.60
2019-02-05T04:14:51.854Z,98.00
2019-02-05T04:17:59.482Z,98.10
2019-02-05T04:21:10.633Z,98.10
2019-02-05T04:24:32.848Z,97.50
2019-02-05T04:28:01.211Z,98.00
2019-02-05T04:31:13.706Z,98.40
2019-02-05T04:34:08.843Z,98.40
2019-02-05T04:37:03.471Z,98.60
2019-02-05T04:39:54.280Z,98.60
2019-02-05T04:43:06.324Z,98.40
2019-02-05T04:46:16.199Z,97.90
2019-02-05T04:49:02.279Z,98.40
2019-02-05T04:52:24.123Z,98.60
2019-02-05T04:55:28.303Z,98.30
2019-02-05T04:58:37.034Z,98.40
2019-02-05T05:01:33.123Z,98.70
2019-02-05T05:04:25.570Z,99.00
2019-02-05T05:07:31.498Z,99.00
2019-02-05T05:09:59.922Z,98.80
2019-02-05T05:12:28.571Z,99.40
2019-02-05T05:14:56.484Z,99.50
2019-02-05T05:17:24.458Z,99.60
2019-02-05T05:19:52.688Z,99.10
2019-02-05T05:22:20.737Z,99.50
2019-02-05T05:24:48.504Z,99.90
2019-02-05T05:27:17.953Z,99.50
2019-02-05T05:29:46.189Z,99.90
2019-02-05T05:32:13.907Z,99.90
2019-02-05T05:34:41.566Z,99.90
2019-02-05T05:37:08.108Z,99.90
2019-02-05T05:39:35.762Z,99.90
2019-02-05T05:42:03.538Z,99.90
2019-02-05T05:44:31.495Z,99.90
2019-02-05T05:46:59.192Z,99.90
2019-02-05T05:49:27.193Z,99.90
2019-02-05T05:51:55.110Z,99.90
2019-02-05T05:54:22.854Z,99.90
2019-02-05T05:56:50.473Z,99.90
2019-02-05T05:59:18.495Z,99.90
2019-02-05T06:01:46.156Z,99.90
2019-02-05T06:04:13.937Z,99.90
2019-02-05T06:06:42.443Z,99.90
2019-02-05T06:09:10.711Z,99.90
2019-02-05T06:11:38.549Z,99.90
2019-02-05T06:14:06.302Z,99.90
2019-02-05T06:16:34.043Z,99.90
2019-02-05T06:19:01.928Z,99.90
2019-02-05T06:21:29.897Z,99.90
2019-02-05T06:23:58.146Z,99.90
2019-02-05T06:26:26.790Z,99.90
2019-02-05T06:28:54.729Z,99.90
2019-02-05T06:31:22.383Z,99.90
2019-02-05T06:33:50.070Z,99.90
2019-02-05T06:36:18.057Z,99.90
2019-02-05T06:38:45.736Z,99.90
2019-02-05T06:41:13.746Z,99.90
2019-02-05T06:43:41.958Z,99.90
2019-02-05T06:46:10.610Z,99.90
2019-02-05T06:48:38.336Z,99.90
2019-02-05T06:51:06.004Z,99.90
2019-02-05T06:53:33.702Z,99.90
2019-02-05T06:56:01.960Z,99.90
2019-02-05T06:58:29.692Z,99.90
2019-02-05T07:00:57.560Z,99.90
2019-02-05T07:03:25.267Z,99.90
2019-02-05T07:05:53.319Z,99.90
2019-02-05T07:08:21.513Z,99.90
2019-02-05T07:10:49.235Z,99.90
2019-02-05T07:13:16.906Z,99.90
2019-02-05T07:15:44.812Z,99.90
2019-02-05T07:18:12.866Z,99.90
2019-02-05T07:20:40.826Z,99.90
2019-02-05T07:23:08.527Z,99.90
2019-02-05T07:25:36.618Z,99.90
2019-02-05T07:28:04.642Z,99.90
2019-02-05T07:30:32.405Z,99.90
2019-02-05T07:32:59.958Z,99.90
2019-02-05T07:35:28.136Z,99.90
2019-02-05T07:37:56.202Z,99.90
2019-02-05T07:40:23.900Z,99.90
2019-02-05T07:42:51.910Z,99.90
2019-02-05T07:45:19.907Z,99.90
2019-02-05T07:47:47.877Z,99.90
2019-02-05T07:50:17.894Z,99.90
2019-02-05T07:52:45.582Z,99.90
2019-02-05T07:55:13.336Z,99.90
2019-02-05T07:57:42.007Z,99.90
2019-02-05T08:00:18.134Z,99.80
2019-02-05T08:02:45.899Z,99.90
2019-02-05T08:05:16.070Z,99.90
2019-02-05T08:07:44.296Z,96.60
2019-02-05T08:10:13.315Z,91.70
2019-02-05T08:12:41.701Z,88.10
2019-02-05T08:15:11.595Z,80.20
2019-02-05T08:17:40.288Z,78.10
2019-02-05T08:20:08.288Z,78.90
2019-02-05T08:22:36.027Z,73.90
2019-02-05T08:25:04.375Z,73.00
2019-02-05T08:27:32.783Z,71.50
2019-02-05T08:30:00.760Z,71.60
2019-02-05T08:32:28.827Z,68.90
2019-02-05T08:34:56.794Z,69.30
2019-02-05T08:37:24.798Z,68.30
2019-02-05T08:39:52.479Z,66.50
2019-02-05T08:42:20.279Z,64.30
2019-02-05T08:44:48.353Z,63.20
2019-02-05T08:47:15.992Z,65.50
2019-02-05T08:49:44.010Z,67.30
2019-02-05T08:52:11.710Z,67.60
2019-02-05T08:54:40.228Z,64.80
2019-02-05T08:57:08.055Z,63.40
2019-02-05T08:59:35.666Z,63.10
2019-02-05T09:02:03.514Z,63.80
2019-02-05T09:04:31.434Z,63.20
2019-02-05T09:06:59.062Z,64.30
2019-02-05T09:09:27.009Z,62.70
2019-02-05T09:11:54.647Z,64.10
2019-02-05T09:14:23.146Z,60.30
2019-02-05T09:16:51.103Z,59.10
2019-02-05T09:19:18.683Z,58.10
2019-02-05T09:21:46.348Z,56.80
2019-02-05T09:24:14.216Z,57.00
2019-02-05T09:26:42.141Z,56.20
2019-02-05T09:29:10.479Z,55.70
2019-02-05T09:31:38.814Z,54.90
2019-02-05T09:34:06.434Z,54.30
2019-02-05T09:36:34.381Z,54.30
2019-02-05T09:39:04.760Z,52.00
2019-02-05T09:41:32.863Z,53.10
2019-02-05T09:44:00.822Z,55.50
2019-02-05T09:46:28.546Z,54.80
2019-02-05T09:48:56.198Z,54.20
2019-02-05T09:51:24.094Z,53.80
2019-02-05T09:53:51.644Z,54.00
2019-02-05T09:56:19.310Z,53.60
2019-02-05T09:58:46.896Z,52.80
2019-02-05T10:01:14.872Z,51.70
2019-02-05T10:03:42.817Z,50.90
2019-02-05T10:06:10.743Z,52.10
2019-02-05T10:08:38.467Z,52.70
2019-02-05T10:11:06.336Z,53.70
2019-02-05T10:13:33.994Z,51.90
2019-02-05T10:16:02.318Z,52.20
2019-02-05T10:18:30.011Z,52.40
2019-02-05T10:20:57.911Z,50.40
2019-02-05T10:23:26.090Z,48.80
2019-02-05T10:25:53.822Z,49.40
2019-02-05T10:28:22.039Z,49.90
2019-02-05T10:30:49.682Z,49.10
2019-02-05T10:33:17.730Z,50.10
2019-02-05T10:35:45.445Z,51.70
2019-02-05T10:38:13.141Z,57.00
2019-02-05T10:40:41.119Z,60.40
2019-02-05T10:43:09.287Z,64.50
2019-02-05T10:45:37.934Z,67.90
2019-02-05T10:48:07.639Z,72.00
2019-02-05T10:50:35.719Z,74.70
2019-02-05T10:53:04.400Z,75.70
2019-02-05T10:55:32.089Z,76.40
2019-02-05T10:57:59.787Z,79.50
2019-02-05T11:00:29.294Z,79.20
2019-02-05T11:02:58.547Z,79.70
2019-02-05T11:05:27.894Z,78.80
2019-02-05T11:07:55.958Z,80.10
2019-02-05T11:10:24.030Z,78.40
2019-02-05T11:12:52.393Z,76.40
2019-02-05T11:15:22.709Z,75.40
2019-02-05T11:17:50.414Z,73.10
2019-02-05T11:20:19.997Z,72.30
2019-02-05T11:22:48.095Z,71.80
2019-02-05T11:25:15.834Z,70.90
2019-02-05T11:27:45.942Z,70.40
2019-02-05T11:30:20.317Z,70.20
2019-02-05T11:32:49.263Z,69.60
2019-02-05T11:35:16.899Z,69.60
2019-02-05T11:37:44.970Z,68.30
2019-02-05T11:40:15.963Z,65.70
2019-02-05T11:42:43.579Z,66.50
2019-02-05T11:45:12.692Z,66.80
2019-02-05T11:47:40.647Z,65.80
2019-02-05T11:50:09.860Z,62.30
2019-02-05T11:52:37.537Z,58.70
2019-02-05T11:55:06.591Z,54.40
2019-02-05T11:57:34.966Z,53.00
2019-02-05T12:00:02.874Z,55.30
2019-02-05T12:02:31.078Z,55.60
2019-02-05T12:04:58.740Z,54.80
2019-02-05T12:07:26.376Z,51.80
2019-02-05T12:09:54.826Z,50.10
2019-02-05T12:12:22.387Z,49.50
2019-02-05T12:14:50.697Z,48.90
2019-02-05T12:17:18.336Z,50.40
2019-02-05T12:19:45.967Z,50.40
2019-02-05T12:22:13.715Z,49.70
2019-02-05T12:24:41.777Z,48.40
2019-02-05T12:27:09.663Z,47.50
2019-02-05T12:29:37.604Z,47.00
2019-02-05T12:32:05.536Z,45.70
2019-02-05T12:34:33.579Z,46.50
2019-02-05T12:37:01.474Z,48.20
2019-02-05T12:39:29.206Z,48.60
2019-02-05T12:41:56.795Z,48.50
2019-02-05T12:44:24.674Z,46.20
2019-02-05T12:46:52.697Z,46.30
2019-02-05T12:49:21.031Z,46.20
2019-02-05T12:51:48.970Z,45.30
2019-02-05T12:54:16.617Z,43.40
2019-02-05T12:56:44.192Z,43.80
2019-02-05T12:59:12.217Z,45.70
2019-02-05T13:01:39.811Z,43.80
2019-02-05T13:04:07.546Z,42.50
2019-02-05T13:06:35.354Z,43.80
2019-02-05T13:09:05.799Z,43.80
2019-02-05T13:11:33.416Z,44.00
2019-02-05T13:14:01.077Z,42.70
2019-02-05T13:16:29.232Z,41.40
2019-02-05T13:18:57.350Z,41.60
2019-02-05T13:21:25.206Z,42.50
2019-02-05T13:23:53.181Z,43.20
2019-02-05T13:26:21.052Z,45.20
2019-02-05T13:28:49.015Z,47.60
2019-02-05T13:31:17.330Z,48.80
2019-02-05T13:33:44.967Z,48.60
2019-02-05T13:36:12.642Z,48.20
2019-02-05T13:38:41.050Z,50.30
2019-02-05T13:41:08.675Z,50.40
2019-02-05T13:43:36.748Z,48.90
2019-02-05T13:46:05.678Z,49.00
2019-02-05T13:48:33.674Z,48.60
2019-02-05T13:51:01.947Z,50.30
2019-02-05T13:53:30.005Z,51.90
2019-02-05T13:55:57.654Z,53.10
2019-02-05T13:58:25.610Z,53.70
2019-02-05T14:00:54.763Z,53.50
2019-02-05T14:03:22.640Z,54.90
2019-02-05T14:05:51.179Z,55.80
2019-02-05T14:08:19.534Z,55.00
2019-02-05T14:10:47.811Z,55.50
2019-02-05T14:13:15.574Z,55.00
2019-02-05T14:15:44.620Z,56.10
2019-02-05T14:18:12.906Z,56.60
2019-02-05T14:20:41.002Z,56.40
2019-02-05T14:23:08.678Z,56.40
2019-02-05T14:25:36.409Z,56.90
2019-02-05T14:28:04.636Z,59.20
2019-02-05T14:30:38.000Z,61.50
2019-02-05T14:33:05.928Z,62.50
2019-02-05T14:35:33.923Z,62.80
2019-02-05T14:38:02.171Z,64.30
2019-02-05T14:40:29.795Z,63.80
2019-02-05T14:42:57.864Z,64.30
2019-02-05T14:45:25.533Z,64.30
2019-02-05T14:47:53.681Z,65.80
2019-02-05T14:50:26.094Z,66.90
2019-02-05T14:52:54.338Z,67.70
2019-02-05T14:55:22.051Z,67.40
2019-02-05T14:57:49.819Z,66.30
2019-02-05T15:00:37.433Z,65.70
2019-02-05T15:03:06.912Z,68.10
2019-02-05T15:05:34.654Z,67.70
2019-02-05T15:08:02.297Z,66.90
2019-02-05T15:10:30.025Z,68.10
2019-02-05T15:12:57.918Z,68.60
2019-02-05T15:15:25.940Z,69.20
2019-02-05T15:17:53.672Z,70.20
2019-02-05T15:20:27.539Z,70.70
2019-02-05T15:22:55.498Z,70.90
2019-02-05T15:25:23.391Z,70.70
2019-02-05T15:27:51.067Z,69.90
2019-02-05T15:30:21.851Z,69.20
2019-02-05T15:33:21.178Z,69.20
2019-02-05T15:35:55.006Z,70.70
2019-02-05T15:38:22.615Z,70.70
2019-02-05T15:40:50.728Z,72.40
2019-02-05T15:43:18.675Z,73.80
2019-02-05T15:45:46.302Z,74.90
2019-02-05T15:48:14.863Z,75.40
2019-02-05T15:50:42.498Z,75.70
2019-02-05T15:53:10.141Z,76.10
2019-02-05T15:55:37.739Z,77.00
2019-02-05T15:58:05.346Z,76.60
2019-02-05T16:00:34.753Z,76.80
2019-02-05T16:03:02.768Z,76.10
2019-02-05T16:05:31.147Z,75.60
2019-02-05T16:08:01.311Z,75.90
2019-02-05T16:10:28.966Z,75.60
2019-02-05T16:12:57.404Z,76.30
2019-02-05T16:15:25.662Z,77.00
2019-02-05T16:17:53.367Z,75.80
2019-02-05T16:20:21.159Z,76.80
2019-02-05T16:22:50.099Z,76.50
2019-02-05T16:25:18.510Z,77.10
2019-02-05T16:27:46.522Z,77.20
2019-02-05T16:30:16.677Z,77.00
2019-02-05T16:32:44.394Z,77.80
2019-02-05T16:35:13.257Z,77.00
2019-02-05T16:37:41.578Z,77.00
2019-02-05T16:40:20.191Z,77.00
2019-02-05T16:42:47.850Z,77.20
2019-02-05T16:45:18.041Z,78.00
2019-02-05T16:47:45.928Z,78.20
2019-02-05T16:50:19.646Z,77.10
2019-02-05T16:52:47.954Z,76.50
2019-02-05T16:55:16.033Z,76.00
2019-02-05T16:57:43.992Z,75.70
2019-02-05T17:00:15.406Z,75.60
2019-02-05T17:02:44.248Z,75.70
2019-02-05T17:05:12.307Z,75.60
2019-02-05T17:07:40.611Z,75.60
2019-02-05T17:10:09.858Z,76.80
2019-02-05T17:12:37.478Z,76.80
2019-02-05T17:15:07.094Z,76.00
2019-02-05T17:17:35.887Z,76.70
2019-02-05T17:20:07.429Z,76.50
2019-02-05T17:22:35.999Z,77.00
2019-02-05T17:25:04.471Z,79.80
2019-02-05T17:27:32.274Z,82.20
2019-02-05T17:30:00.394Z,83.00
2019-02-05T17:32:39.698Z,82.20
2019-02-05T17:34:58.019Z,82.90
2019-02-05T17:37:26.062Z,83.30
2019-02-05T17:39:54.118Z,82.30
2019-02-05T17:42:22.090Z,81.50
2019-02-05T17:44:50.099Z,82.10
2019-02-05T17:47:18.553Z,81.50
2019-02-05T17:49:46.831Z,80.20
2019-02-05T17:52:14.453Z,79.70
2019-02-05T17:54:42.154Z,78.40
2019-02-05T17:57:10.255Z,78.90
2019-02-05T17:59:38.226Z,80.60
2019-02-05T18:02:07.619Z,80.00
2019-02-05T18:04:35.287Z,80.50
2019-02-05T18:07:03.387Z,81.10
2019-02-05T18:09:31.162Z,81.10
2019-02-05T18:11:58.811Z,82.50
2019-02-05T18:14:26.850Z,82.70
2019-02-05T18:16:54.883Z,83.20
2019-02-05T18:19:23.175Z,84.00
2019-02-05T18:21:50.986Z,83.90
2019-02-05T18:24:18.712Z,83.80
2019-02-05T18:26:46.291Z,84.50
2019-02-05T18:29:13.923Z,84.50
2019-02-05T18:31:42.451Z,85.60
2019-02-05T18:34:10.430Z,85.00
2019-02-05T18:36:38.633Z,84.90
2019-02-05T18:39:08.467Z,86.00
2019-02-05T18:41:36.465Z,84.50
2019-02-05T18:44:04.574Z,84.90
2019-02-05T18:46:32.188Z,85.00
2019-02-05T18:49:05.040Z,84.90
2019-02-05T18:51:29.663Z,85.40
2019-02-05T18:53:57.594Z,85.90
2019-02-05T18:56:25.510Z,87.10
2019-02-05T18:58:54.145Z,87.70
2019-02-05T19:01:21.756Z,89.20
2019-02-05T19:03:50.095Z,88.80
2019-02-05T19:06:18.096Z,89.30
2019-02-05T19:08:45.842Z,89.70
2019-02-05T19:11:13.811Z,90.10
2019-02-05T19:13:41.476Z,90.30
2019-02-05T19:16:09.335Z,90.10
2019-02-05T19:18:37.318Z,90.60
2019-02-05T19:21:05.558Z,90.30
2019-02-05T19:23:34.810Z,90.50
2019-02-05T19:26:20.611Z,90.40
2019-02-05T19:28:48.303Z,90.00
2019-02-05T19:31:23.396Z,90.10
2019-02-05T19:33:51.098Z,90.10
2019-02-05T19:36:20.020Z,91.00
2019-02-05T19:38:48.040Z,90.90
2019-02-05T19:41:16.003Z,91.40
2019-02-05T19:43:43.677Z,91.50
2019-02-05T19:46:29.964Z,92.00
2019-02-05T19:49:02.370Z,92.40
2019-02-05T19:51:30.052Z,92.30
2019-02-05T19:53:57.922Z,92.50
2019-02-05T19:56:25.596Z,93.00
2019-02-05T19:58:54.754Z,93.00
2019-02-05T20:01:22.405Z,93.10
2019-02-05T20:03:50.134Z,93.00
2019-02-05T20:06:17.871Z,93.40
2019-02-05T20:08:45.554Z,93.60
2019-02-05T20:11:13.219Z,93.70
2019-02-05T20:13:41.303Z,93.60
2019-02-05T20:16:08.920Z,93.60
2019-02-05T20:18:36.650Z,94.60
2019-02-05T20:21:04.328Z,94.40
2019-02-05T20:23:31.900Z,94.50
2019-02-05T20:25:59.634Z,94.70
2019-02-05T20:28:27.549Z,94.60
2019-02-05T20:30:56.092Z,95.10
2019-02-05T20:33:23.782Z,95.80
2019-02-05T20:35:51.452Z,95.40
2019-02-05T20:38:19.157Z,95.40
2019-02-05T20:40:47.178Z,96.10
2019-02-05T20:43:14.771Z,95.90
2019-02-05T20:45:42.433Z,95.70
2019-02-05T20:48:10.067Z,96.00
2019-02-05T20:50:37.924Z,96.40
2019-02-05T20:53:13.671Z,95.70
2019-02-05T20:55:35.705Z,96.10
2019-02-05T20:58:06.011Z,96.00
2019-02-05T21:00:34.355Z,96.30
2019-02-05T21:03:02.339Z,96.40
2019-02-05T21:05:30.427Z,95.40
2019-02-05T21:07:58.351Z,96.00
2019-02-05T21:10:26.455Z,95.70
2019-02-05T21:12:54.674Z,95.20
2019-02-05T21:15:23.217Z,95.30
2019-02-05T21:17:51.435Z,95.40
2019-02-05T21:20:28.782Z,95.30
2019-02-05T21:22:50.142Z,95.20
2019-02-05T21:25:20.247Z,95.20
2019-02-05T21:27:47.903Z,95.40
2019-02-05T21:30:17.566Z,95.00
2019-02-05T21:32:47.857Z,94.80
2019-02-05T21:35:15.405Z,94.80
2019-02-05T21:37:43.634Z,95.40
2019-02-05T21:40:16.694Z,95.60
2019-02-05T21:42:44.731Z,95.50
2019-02-05T21:45:17.047Z,95.70
2019-02-05T21:47:45.007Z,96.70
2019-02-05T21:50:14.838Z,97.30
2019-02-05T21:52:43.150Z,96.60
2019-02-05T21:55:11.267Z,96.90
2019-02-05T21:57:39.322Z,97.20
2019-02-05T22:00:13.818Z,97.60
2019-02-05T22:02:41.852Z,96.90
2019-02-05T22:05:09.670Z,97.30
2019-02-05T22:07:37.304Z,97.60
2019-02-05T22:10:05.620Z,98.10
2019-02-05T22:12:33.486Z,98.00
2019-02-05T22:15:01.756Z,98.40
2019-02-05T22:17:29.392Z,98.30
2019-02-05T22:19:57.045Z,98.50
2019-02-05T22:22:25.066Z,98.00
2019-02-05T22:24:52.815Z,98.70
2019-02-05T22:27:20.466Z,98.40
2019-02-05T22:29:48.234Z,98.10
2019-02-05T22:32:15.924Z,97.90
2019-02-05T22:34:43.891Z,98.50
2019-02-05T22:37:11.838Z,98.60
2019-02-05T22:39:39.977Z,99.20
2019-02-05T22:42:07.994Z,99.20
2019-02-05T22:44:36.354Z,98.90
2019-02-05T22:47:04.511Z,98.60
2019-02-05T22:49:32.519Z,99.10
2019-02-05T22:52:00.441Z,98.70
2019-02-05T22:54:28.486Z,98.70
2019-02-05T22:56:56.398Z,98.80
2019-02-05T22:59:24.354Z,99.00
2019-02-05T23:01:54.571Z,98.20
2019-02-05T23:04:54.708Z,98.70
2019-02-05T23:07:24.140Z,98.70
2019-02-05T23:10:44.068Z,98.40
2019-02-05T23:13:17.171Z,98.80
2019-02-05T23:15:46.746Z,99.30
2019-02-05T23:18:14.686Z,99.10
2019-02-05T23:20:42.307Z,99.30
2019-02-05T23:23:10.023Z,99.00
2019-02-05T23:25:37.638Z,99.40
2019-02-05T23:28:05.510Z,99.90
2019-02-05T23:30:33.260Z,99.90
2019-02-05T23:33:01.164Z,99.90
2019-02-05T23:35:29.201Z,99.90
2019-02-05T23:37:58.703Z,99.90
2019-02-05T23:40:26.415Z,99.90
2019-02-05T23:42:54.134Z,99.90
2019-02-05T23:45:21.814Z,99.90
2019-02-05T23:47:49.610Z,99.90
2019-02-05T23:50:17.282Z,99.90
2019-02-05T23:52:45.530Z,99.90
2019-02-05T23:55:14.589Z,99.90
2019-02-05T23:57:42.335Z,99.90
